sensor_id;sensor_type;location;lat;lon;timestamp;pressure;altitude;pressure_sealevel;temperature;humidity
63287;BME280;49410;55.708;37.522;2022-11-23T00:01:31;98400.19;;;1.12;nan
63287;BME280;49410;55.708;37.522;2022-11-23T00:04:01;98388.56;;;1.02;nan
63287;BME280;49410;55.708;37.522;2022-11-23T00:06:27;98402.31;;;0.99;nan
63287;BME280;49410;55.708;37.522;2022-11-23T00:08:53;98413.94;;;1.09;nan
63287;BME280;49410;55.708;37.522;2022-11-23T00:11:20;98402.03;;;1.12;nan
63287;BME280;49410;55.708;37.522;2022-11-23T00:13:47;98399.47;;;1.10;nan
63287;BME280;49410;55.708;37.522;2022-11-23T00:16:15;98396.91;;;1.18;nan
63287;BME280;49410;55.708;37.522;2022-11-23T00:18:41;98404.03;;;1.29;nan
63287;BME280;49410;55.708;37.522;2022-11-23T00:21:08;98391.81;;;1.25;nan
63287;BME280;49410;55.708;37.522;2022-11-23T00:23:35;98403.31;;;1.37;nan
63287;BME280;49410;55.708;37.522;2022-11-23T00:26:01;98390.56;;;1.29;nan
63287;BME280;49410;55.708;37.522;2022-11-23T00:28:27;98395.34;;;1.35;nan
63287;BME280;49410;55.708;37.522;2022-11-23T00:30:52;98390.69;;;1.37;nan
63287;BME280;49410;55.708;37.522;2022-11-23T00:33:18;98396.63;;;1.41;nan
63287;BME280;49410;55.708;37.522;2022-11-23T00:35:44;98392.53;;;1.37;nan
63287;BME280;49410;55.708;37.522;2022-11-23T00:38:10;98374.13;;;1.32;nan
63287;BME280;49410;55.708;37.522;2022-11-23T00:40:35;98387.00;;;1.38;nan
63287;BME280;49410;55.708;37.522;2022-11-23T00:43:01;98361.75;;;1.30;nan
63287;BME280;49410;55.708;37.522;2022-11-23T00:45:26;98377.22;;;1.37;nan
63287;BME280;49410;55.708;37.522;2022-11-23T00:47:52;98360.94;;;1.29;nan
63287;BME280;49410;55.708;37.522;2022-11-23T00:50:17;98383.59;;;1.36;nan
63287;BME280;49410;55.708;37.522;2022-11-23T00:52:43;98382.59;;;1.37;nan
63287;BME280;49410;55.708;37.522;2022-11-23T00:55:08;98381.47;;;1.30;nan
63287;BME280;49410;55.708;37.522;2022-11-23T00:57:34;98394.22;;;1.38;nan
63287;BME280;49410;55.708;37.522;2022-11-23T01:00:00;98390.41;;;1.31;nan
63287;BME280;49410;55.708;37.522;2022-11-23T01:02:26;98398.47;;;1.31;nan
63287;BME280;49410;55.708;37.522;2022-11-23T01:04:51;98404.59;;;1.33;nan
63287;BME280;49410;55.708;37.522;2022-11-23T01:07:17;98366.31;;;1.19;nan
63287;BME280;49410;55.708;37.522;2022-11-23T01:09:42;98391.28;;;1.31;nan
63287;BME280;49410;55.708;37.522;2022-11-23T01:12:08;98398.06;;;1.35;nan
63287;BME280;49410;55.708;37.522;2022-11-23T01:14:33;98385.59;;;1.24;nan
63287;BME280;49410;55.708;37.522;2022-11-23T01:16:59;98379.38;;;1.14;nan
63287;BME280;49410;55.708;37.522;2022-11-23T01:19:24;98390.44;;;1.21;nan
63287;BME280;49410;55.708;37.522;2022-11-23T01:21:50;98382.06;;;1.14;nan
63287;BME280;49410;55.708;37.522;2022-11-23T01:24:21;98379.06;;;1.17;nan
63287;BME280;49410;55.708;37.522;2022-11-23T01:26:53;98373.69;;;1.07;nan
63287;BME280;49410;55.708;37.522;2022-11-23T01:29:20;98376.38;;;1.07;nan
63287;BME280;49410;55.708;37.522;2022-11-23T01:31:45;98380.50;;;1.02;nan
63287;BME280;49410;55.708;37.522;2022-11-23T01:34:12;98375.69;;;0.96;nan
63287;BME280;49410;55.708;37.522;2022-11-23T01:36:39;98387.56;;;0.93;nan
63287;BME280;49410;55.708;37.522;2022-11-23T01:39:05;98372.69;;;0.89;nan
63287;BME280;49410;55.708;37.522;2022-11-23T01:41:36;98376.50;;;0.96;nan
63287;BME280;49410;55.708;37.522;2022-11-23T01:44:26;98374.41;;;0.90;nan
63287;BME280;49410;55.708;37.522;2022-11-23T01:46:53;98382.63;;;0.98;nan
63287;BME280;49410;55.708;37.522;2022-11-23T01:49:18;98371.81;;;0.88;nan
63287;BME280;49410;55.708;37.522;2022-11-23T01:51:45;98383.44;;;0.99;nan
63287;BME280;49410;55.708;37.522;2022-11-23T01:54:21;98391.00;;;1.05;nan
63287;BME280;49410;55.708;37.522;2022-11-23T01:56:55;98386.44;;;1.05;nan
63287;BME280;49410;55.708;37.522;2022-11-23T01:59:24;98388.72;;;1.00;nan
63287;BME280;49410;55.708;37.522;2022-11-23T02:01:50;98373.81;;;0.96;nan
63287;BME280;49410;55.708;37.522;2022-11-23T02:04:22;98388.28;;;0.95;nan
63287;BME280;49410;55.708;37.522;2022-11-23T02:06:49;98389.41;;;1.02;nan
63287;BME280;49410;55.708;37.522;2022-11-23T02:09:15;98392.94;;;0.93;nan
63287;BME280;49410;55.708;37.522;2022-11-23T02:11:41;98398.34;;;1.03;nan
63287;BME280;49410;55.708;37.522;2022-11-23T02:14:07;98396.66;;;1.12;nan
63287;BME280;49410;55.708;37.522;2022-11-23T02:16:36;98403.59;;;1.14;nan
63287;BME280;49410;55.708;37.522;2022-11-23T02:19:01;98385.19;;;1.10;nan
63287;BME280;49410;55.708;37.522;2022-11-23T02:21:28;98398.50;;;1.21;nan
63287;BME280;49410;55.708;37.522;2022-11-23T02:24:07;98395.50;;;1.24;nan
63287;BME280;49410;55.708;37.522;2022-11-23T02:26:37;98383.44;;;1.18;nan
63287;BME280;49410;55.708;37.522;2022-11-23T02:29:19;98395.94;;;1.19;nan
63287;BME280;49410;55.708;37.522;2022-11-23T02:31:46;98395.50;;;1.24;nan
63287;BME280;49410;55.708;37.522;2022-11-23T02:34:11;98388.28;;;1.24;nan
63287;BME280;49410;55.708;37.522;2022-11-23T02:36:55;98398.38;;;1.32;nan
63287;BME280;49410;55.708;37.522;2022-11-23T02:39:43;98386.59;;;1.23;nan
63287;BME280;49410;55.708;37.522;2022-11-23T02:42:10;98391.13;;;1.33;nan
63287;BME280;49410;55.708;37.522;2022-11-23T02:47:08;98380.50;;;1.31;nan
63287;BME280;49410;55.708;37.522;2022-11-23T02:49:34;98391.81;;;1.45;nan
63287;BME280;49410;55.708;37.522;2022-11-23T02:52:00;98382.88;;;1.44;nan
63287;BME280;49410;55.708;37.522;2022-11-23T02:54:26;98382.75;;;1.36;nan
63287;BME280;49410;55.708;37.522;2022-11-23T02:56:51;98389.00;;;1.46;nan
63287;BME280;49410;55.708;37.522;2022-11-23T02:59:17;98375.06;;;1.41;nan
63287;BME280;49410;55.708;37.522;2022-11-23T03:01:43;98381.91;;;1.45;nan
63287;BME280;49410;55.708;37.522;2022-11-23T03:04:09;98390.25;;;1.42;nan
63287;BME280;49410;55.708;37.522;2022-11-23T03:06:35;98386.44;;;1.35;nan
63287;BME280;49410;55.708;37.522;2022-11-23T03:09:01;98407.25;;;1.43;nan
63287;BME280;49410;55.708;37.522;2022-11-23T03:11:26;98402.31;;;1.48;nan
63287;BME280;49410;55.708;37.522;2022-11-23T03:13:52;98412.09;;;1.49;nan
63287;BME280;49410;55.708;37.522;2022-11-23T03:16:17;98410.69;;;1.35;nan
63287;BME280;49410;55.708;37.522;2022-11-23T03:18:42;98395.66;;;1.32;nan
63287;BME280;49410;55.708;37.522;2022-11-23T03:21:08;98403.31;;;1.37;nan
63287;BME280;49410;55.708;37.522;2022-11-23T03:23:34;98411.53;;;1.35;nan
63287;BME280;49410;55.708;37.522;2022-11-23T03:26:00;98398.06;;;1.35;nan
63287;BME280;49410;55.708;37.522;2022-11-23T03:28:26;98393.38;;;1.37;nan
63287;BME280;49410;55.708;37.522;2022-11-23T03:30:52;98406.97;;;1.46;nan
63287;BME280;49410;55.708;37.522;2022-11-23T03:33:18;98405.00;;;1.48;nan
63287;BME280;49410;55.708;37.522;2022-11-23T03:35:44;98392.78;;;1.44;nan
63287;BME280;49410;55.708;37.522;2022-11-23T03:38:09;98404.56;;;1.52;nan
63287;BME280;49410;55.708;37.522;2022-11-23T03:40:35;98387.84;;;1.49;nan
63287;BME280;49410;55.708;37.522;2022-11-23T03:43:01;98391.41;;;1.39;nan
63287;BME280;49410;55.708;37.522;2022-11-23T03:45:26;98392.25;;;1.50;nan
63287;BME280;49410;55.708;37.522;2022-11-23T03:47:52;98395.06;;;1.48;nan
63287;BME280;49410;55.708;37.522;2022-11-23T03:50:17;98404.28;;;1.46;nan
63287;BME280;49410;55.708;37.522;2022-11-23T03:52:43;98397.91;;;1.47;nan
63287;BME280;49410;55.708;37.522;2022-11-23T03:55:08;98404.28;;;1.46;nan
63287;BME280;49410;55.708;37.522;2022-11-23T03:57:34;98404.16;;;1.37;nan
63287;BME280;49410;55.708;37.522;2022-11-23T04:00:00;98398.50;;;1.41;nan
63287;BME280;49410;55.708;37.522;2022-11-23T04:02:25;98405.84;;;1.48;nan
63287;BME280;49410;55.708;37.522;2022-11-23T04:04:51;98385.69;;;1.43;nan
63287;BME280;49410;55.708;37.522;2022-11-23T04:07:16;98404.16;;;1.47;nan
63287;BME280;49410;55.708;37.522;2022-11-23T04:09:42;98408.09;;;1.53;nan
63287;BME280;49410;55.708;37.522;2022-11-23T04:12:08;98390.97;;;1.44;nan
63287;BME280;49410;55.708;37.522;2022-11-23T04:14:34;98393.22;;;1.39;nan
63287;BME280;49410;55.708;37.522;2022-11-23T04:17:00;98406.00;;;1.47;nan
63287;BME280;49410;55.708;37.522;2022-11-23T04:19:27;98396.06;;;1.37;nan
63287;BME280;49410;55.708;37.522;2022-11-23T04:21:53;98412.81;;;1.41;nan
63287;BME280;49410;55.708;37.522;2022-11-23T04:24:18;98403.03;;;1.30;nan
63287;BME280;49410;55.708;37.522;2022-11-23T04:26:44;98412.94;;;1.30;nan
63287;BME280;49410;55.708;37.522;2022-11-23T04:29:09;98405.41;;;1.33;nan
63287;BME280;49410;55.708;37.522;2022-11-23T04:31:35;98405.72;;;1.30;nan
63287;BME280;49410;55.708;37.522;2022-11-23T04:34:00;98416.91;;;1.35;nan
63287;BME280;49410;55.708;37.522;2022-11-23T04:36:26;98416.19;;;1.33;nan
63287;BME280;49410;55.708;37.522;2022-11-23T04:38:52;98406.84;;;1.18;nan
63287;BME280;49410;55.708;37.522;2022-11-23T04:41:17;98413.50;;;1.14;nan
63287;BME280;49410;55.708;37.522;2022-11-23T04:43:43;98427.00;;;1.23;nan
63287;BME280;49410;55.708;37.522;2022-11-23T04:46:10;98410.13;;;1.21;nan
63287;BME280;49410;55.708;37.522;2022-11-23T04:48:36;98410.81;;;1.23;nan
63287;BME280;49410;55.708;37.522;2022-11-23T04:51:01;98421.03;;;1.30;nan
63287;BME280;49410;55.708;37.522;2022-11-23T04:53:27;98418.63;;;1.36;nan
63287;BME280;49410;55.708;37.522;2022-11-23T04:55:52;98426.69;;;1.36;nan
63287;BME280;49410;55.708;37.522;2022-11-23T04:58:18;98432.94;;;1.37;nan
63287;BME280;49410;55.708;37.522;2022-11-23T05:00:43;98423.84;;;1.38;nan
63287;BME280;49410;55.708;37.522;2022-11-23T05:03:09;98418.47;;;1.38;nan
63287;BME280;49410;55.708;37.522;2022-11-23T05:05:38;98437.63;;;1.35;nan
63287;BME280;49410;55.708;37.522;2022-11-23T05:08:04;98423.44;;;1.33;nan
63287;BME280;49410;55.708;37.522;2022-11-23T05:10:30;98415.63;;;1.30;nan
63287;BME280;49410;55.708;37.522;2022-11-23T05:12:55;98419.47;;;1.37;nan
63287;BME280;49410;55.708;37.522;2022-11-23T05:15:21;98421.03;;;1.39;nan
63287;BME280;49410;55.708;37.522;2022-11-23T05:17:46;98412.09;;;1.29;nan
63287;BME280;49410;55.708;37.522;2022-11-23T05:20:12;98413.69;;;1.22;nan
63287;BME280;49410;55.708;37.522;2022-11-23T05:22:37;98435.34;;;1.40;nan
63287;BME280;49410;55.708;37.522;2022-11-23T05:25:03;98426.97;;;1.33;nan
63287;BME280;49410;55.708;37.522;2022-11-23T05:27:29;98426.56;;;1.28;nan
63287;BME280;49410;55.708;37.522;2022-11-23T05:29:54;98423.31;;;1.24;nan
63287;BME280;49410;55.708;37.522;2022-11-23T05:32:20;98441.59;;;1.41;nan
63287;BME280;49410;55.708;37.522;2022-11-23T05:34:45;98432.66;;;1.40;nan
63287;BME280;49410;55.708;37.522;2022-11-23T05:37:11;98429.94;;;1.40;nan
63287;BME280;49410;55.708;37.522;2022-11-23T05:39:36;98437.19;;;1.49;nan
63287;BME280;49410;55.708;37.522;2022-11-23T05:42:02;98428.53;;;1.46;nan
63287;BME280;49410;55.708;37.522;2022-11-23T05:44:28;98435.34;;;1.40;nan
63287;BME280;49410;55.708;37.522;2022-11-23T05:46:53;98445.28;;;1.39;nan
63287;BME280;49410;55.708;37.522;2022-11-23T05:49:19;98440.16;;;1.36;nan
63287;BME280;49410;55.708;37.522;2022-11-23T05:51:44;98435.91;;;1.34;nan
63287;BME280;49410;55.708;37.522;2022-11-23T05:54:10;98443.28;;;1.32;nan
63287;BME280;49410;55.708;37.522;2022-11-23T05:56:35;98445.00;;;1.33;nan
63287;BME280;49410;55.708;37.522;2022-11-23T05:59:00;98446.97;;;1.31;nan
63287;BME280;49410;55.708;37.522;2022-11-23T06:01:26;98446.13;;;1.30;nan
63287;BME280;49410;55.708;37.522;2022-11-23T06:03:51;98442.03;;;1.36;nan
63287;BME280;49410;55.708;37.522;2022-11-23T06:06:17;98432.34;;;1.33;nan
63287;BME280;49410;55.708;37.522;2022-11-23T06:08:42;98410.13;;;1.21;nan
63287;BME280;49410;55.708;37.522;2022-11-23T06:11:08;98446.69;;;1.44;nan
63287;BME280;49410;55.708;37.522;2022-11-23T06:13:34;98432.66;;;1.40;nan
63287;BME280;49410;55.708;37.522;2022-11-23T06:15:59;98445.97;;;1.51;nan
63287;BME280;49410;55.708;37.522;2022-11-23T06:18:25;98431.22;;;1.46;nan
63287;BME280;49410;55.708;37.522;2022-11-23T06:20:50;98435.19;;;1.51;nan
63287;BME280;49410;55.708;37.522;2022-11-23T06:23:16;98432.94;;;1.47;nan
63287;BME280;49410;55.708;37.522;2022-11-23T06:25:41;98438.75;;;1.52;nan
63287;BME280;49410;55.708;37.522;2022-11-23T06:28:07;98449.78;;;1.59;nan
63287;BME280;49410;55.708;37.522;2022-11-23T06:30:32;98426.56;;;1.48;nan
63287;BME280;49410;55.708;37.522;2022-11-23T06:33:01;98425.69;;;1.28;nan
63287;BME280;49410;55.708;37.522;2022-11-23T06:35:27;98439.47;;;1.44;nan
63287;BME280;49410;55.708;37.522;2022-11-23T06:37:53;98432.09;;;1.36;nan
63287;BME280;49410;55.708;37.522;2022-11-23T06:40:19;98436.47;;;1.37;nan
63287;BME280;49410;55.708;37.522;2022-11-23T06:42:45;98440.88;;;1.38;nan
63287;BME280;49410;55.708;37.522;2022-11-23T06:45:11;98450.09;;;1.46;nan
63287;BME280;49410;55.708;37.522;2022-11-23T06:47:36;98432.81;;;1.38;nan
63287;BME280;49410;55.708;37.522;2022-11-23T06:50:02;98449.09;;;1.47;nan
63287;BME280;49410;55.708;37.522;2022-11-23T06:52:28;98443.44;;;1.30;nan
63287;BME280;49410;55.708;37.522;2022-11-23T06:54:53;98448.25;;;1.46;nan
63287;BME280;49410;55.708;37.522;2022-11-23T06:57:19;98446.69;;;1.44;nan
63287;BME280;49410;55.708;37.522;2022-11-23T06:59:44;98452.94;;;1.44;nan
63287;BME280;49410;55.708;37.522;2022-11-23T07:02:11;98441.59;;;1.41;nan
63287;BME280;49410;55.708;37.522;2022-11-23T07:04:36;98454.50;;;1.47;nan
63287;BME280;49410;55.708;37.522;2022-11-23T07:07:02;98461.44;;;1.49;nan
63287;BME280;49410;55.708;37.522;2022-11-23T07:09:27;98453.78;;;1.54;nan
63287;BME280;49410;55.708;37.522;2022-11-23T07:11:53;98451.63;;;1.48;nan
63287;BME280;49410;55.708;37.522;2022-11-23T07:14:18;98467.53;;;1.51;nan
63287;BME280;49410;55.708;37.522;2022-11-23T07:16:44;98458.88;;;1.48;nan
63287;BME280;49410;55.708;37.522;2022-11-23T07:19:09;98484.97;;;1.57;nan
63287;BME280;49410;55.708;37.522;2022-11-23T07:21:35;98460.31;;;1.52;nan
63287;BME280;49410;55.708;37.522;2022-11-23T07:24:00;98469.53;;;1.39;nan
63287;BME280;49410;55.708;37.522;2022-11-23T07:26:26;98466.53;;;1.23;nan
63287;BME280;49410;55.708;37.522;2022-11-23T07:28:51;98482.25;;;1.28;nan
63287;BME280;49410;55.708;37.522;2022-11-23T07:31:17;98450.25;;;1.24;nan
63287;BME280;49410;55.708;37.522;2022-11-23T07:33:45;98478.59;;;1.19;nan
63287;BME280;49410;55.708;37.522;2022-11-23T07:36:11;98483.81;;;1.20;nan
63287;BME280;49410;55.708;37.522;2022-11-23T07:38:37;98484.97;;;1.18;nan
63287;BME280;49410;55.708;37.522;2022-11-23T07:41:03;98468.53;;;1.21;nan
63287;BME280;49410;55.708;37.522;2022-11-23T07:43:29;98475.03;;;1.28;nan
63287;BME280;49410;55.708;37.522;2022-11-23T07:45:55;98475.63;;;1.32;nan
63287;BME280;49410;55.708;37.522;2022-11-23T07:48:21;98476.75;;;1.39;nan
63287;BME280;49410;55.708;37.522;2022-11-23T07:50:47;98473.78;;;1.42;nan
63287;BME280;49410;55.708;37.522;2022-11-23T07:53:12;98459.31;;;1.33;nan
63287;BME280;49410;55.708;37.522;2022-11-23T07:55:38;98466.53;;;1.43;nan
63287;BME280;49410;55.708;37.522;2022-11-23T07:58:03;98469.38;;;1.51;nan
63287;BME280;49410;55.708;37.522;2022-11-23T08:00:31;98458.31;;;1.44;nan
63287;BME280;49410;55.708;37.522;2022-11-23T08:02:57;98461.16;;;1.52;nan
63287;BME280;49410;55.708;37.522;2022-11-23T08:05:23;98476.91;;;1.57;nan
63287;BME280;49410;55.708;37.522;2022-11-23T08:07:50;98472.34;;;1.67;nan
63287;BME280;49410;55.708;37.522;2022-11-23T08:10:16;98476.91;;;1.57;nan
63287;BME280;49410;55.708;37.522;2022-11-23T08:12:41;98465.41;;;1.45;nan
63287;BME280;49410;55.708;37.522;2022-11-23T08:15:07;98466.97;;;1.28;nan
63287;BME280;49410;55.708;37.522;2022-11-23T08:17:33;98477.72;;;1.38;nan
63287;BME280;49410;55.708;37.522;2022-11-23T08:19:58;98464.69;;;1.33;nan
63287;BME280;49410;55.708;37.522;2022-11-23T08:22:24;98473.22;;;1.38;nan
63287;BME280;49410;55.708;37.522;2022-11-23T08:24:51;98478.47;;;1.50;nan
63287;BME280;49410;55.708;37.522;2022-11-23T08:27:16;98463.56;;;1.46;nan
63287;BME280;49410;55.708;37.522;2022-11-23T08:29:42;98469.38;;;1.61;nan
63287;BME280;49410;55.708;37.522;2022-11-23T08:32:07;98479.75;;;1.55;nan
63287;BME280;49410;55.708;37.522;2022-11-23T08:34:33;98483.28;;;1.56;nan
63287;BME280;49410;55.708;37.522;2022-11-23T08:36:58;98484.84;;;1.49;nan
63287;BME280;49410;55.708;37.522;2022-11-23T08:39:24;98483.13;;;1.28;nan
63287;BME280;49410;55.708;37.522;2022-11-23T08:41:49;98469.25;;;1.33;nan
63287;BME280;49410;55.708;37.522;2022-11-23T08:44:15;98490.22;;;1.49;nan
63287;BME280;49410;55.708;37.522;2022-11-23T08:46:40;98494.31;;;1.53;nan
63287;BME280;49410;55.708;37.522;2022-11-23T08:49:06;98494.31;;;1.53;nan
63287;BME280;49410;55.708;37.522;2022-11-23T08:51:32;98504.25;;;1.43;nan
63287;BME280;49410;55.708;37.522;2022-11-23T08:53:58;98500.00;;;1.40;nan
63287;BME280;49410;55.708;37.522;2022-11-23T08:56:24;98488.94;;;1.43;nan
63287;BME280;49410;55.708;37.522;2022-11-23T08:58:49;98481.72;;;1.44;nan
63287;BME280;49410;55.708;37.522;2022-11-23T09:01:16;98489.25;;;1.50;nan
63287;BME280;49410;55.708;37.522;2022-11-23T09:03:42;98479.72;;;1.46;nan
63287;BME280;49410;55.708;37.522;2022-11-23T09:06:07;98476.50;;;1.52;nan
63287;BME280;49410;55.708;37.522;2022-11-23T09:08:34;98482.88;;;1.51;nan
63287;BME280;49410;55.708;37.522;2022-11-23T09:11:05;98468.25;;;1.53;nan
63287;BME280;49410;55.708;37.522;2022-11-23T09:13:31;98473.06;;;1.60;nan
63287;BME280;49410;55.708;37.522;2022-11-23T09:15:58;98480.44;;;1.67;nan
63287;BME280;49410;55.708;37.522;2022-11-23T09:18:25;98500.03;;;1.69;nan
63287;BME280;49410;55.708;37.522;2022-11-23T09:20:50;98478.03;;;1.45;nan
63287;BME280;49410;55.708;37.522;2022-11-23T09:23:16;98495.34;;;1.62;nan
63287;BME280;49410;55.708;37.522;2022-11-23T09:25:41;98482.00;;;1.70;nan
63287;BME280;49410;55.708;37.522;2022-11-23T09:28:13;98476.47;;;1.72;nan
63287;BME280;49410;55.708;37.522;2022-11-23T09:30:40;98470.78;;;1.75;nan
63287;BME280;49410;55.708;37.522;2022-11-23T09:33:06;98493.19;;;1.95;nan
63287;BME280;49410;55.708;37.522;2022-11-23T09:35:33;98490.50;;;1.95;nan
63287;BME280;49410;55.708;37.522;2022-11-23T09:37:59;98497.88;;;1.93;nan
63287;BME280;49410;55.708;37.522;2022-11-23T09:40:31;98495.88;;;1.95;nan
63287;BME280;49410;55.708;37.522;2022-11-23T09:49:13;98494.16;;;2.04;nan
63287;BME280;49410;55.708;37.522;2022-11-23T09:51:41;98485.53;;;1.90;nan
63287;BME280;49410;55.708;37.522;2022-11-23T09:54:26;98503.09;;;1.94;nan
63287;BME280;49410;55.708;37.522;2022-11-23T09:56:56;98494.06;;;1.85;nan
63287;BME280;49410;55.708;37.522;2022-11-23T10:00:22;98500.56;;;1.63;nan
63287;BME280;49410;55.708;37.522;2022-11-23T10:02:21;98502.28;;;1.74;nan
63287;BME280;49410;55.708;37.522;2022-11-23T10:04:49;98488.38;;;1.59;nan
63287;BME280;49410;55.708;37.522;2022-11-23T10:10:04;98490.06;;;1.70;nan
63287;BME280;49410;55.708;37.522;2022-11-23T10:24:38;98478.47;;;1.69;nan
63287;BME280;49410;55.708;37.522;2022-11-23T10:27:16;98496.19;;;1.62;nan
63287;BME280;49410;55.708;37.522;2022-11-23T10:29:42;98487.53;;;1.49;nan
63287;BME280;49410;55.708;37.522;2022-11-23T10:32:36;98501.84;;;1.39;nan
63287;BME280;49410;55.708;37.522;2022-11-23T10:35:17;98501.72;;;1.41;nan
63287;BME280;49410;55.708;37.522;2022-11-23T10:37:45;98508.66;;;1.34;nan
63287;BME280;49410;55.708;37.522;2022-11-23T10:40:23;98499.44;;;1.27;nan
63287;BME280;49410;55.708;37.522;2022-11-23T10:42:56;98500.28;;;1.27;nan
63287;BME280;49410;55.708;37.522;2022-11-23T10:45:26;98485.41;;;1.33;nan
63287;BME280;49410;55.708;37.522;2022-11-23T10:47:56;98502.16;;;1.46;nan
63287;BME280;49410;55.708;37.522;2022-11-23T10:50:28;98498.88;;;1.52;nan
63287;BME280;49410;55.708;37.522;2022-11-23T10:52:58;98477.03;;;1.46;nan
63287;BME280;49410;55.708;37.522;2022-11-23T10:55:29;98498.03;;;1.52;nan
63287;BME280;49410;55.708;37.522;2022-11-23T10:57:56;98498.72;;;1.54;nan
63287;BME280;49410;55.708;37.522;2022-11-23T11:00:23;98502.59;;;1.61;nan
63287;BME280;49410;55.708;37.522;2022-11-23T11:02:54;98511.94;;;1.67;nan
63287;BME280;49410;55.708;37.522;2022-11-23T11:05:30;98518.63;;;1.73;nan
63287;BME280;49410;55.708;37.522;2022-11-23T11:07:57;98514.19;;;1.62;nan
63287;BME280;49410;55.708;37.522;2022-11-23T11:10:39;98520.59;;;1.70;nan
63287;BME280;49410;55.708;37.522;2022-11-23T11:13:29;98515.91;;;1.63;nan
63287;BME280;49410;55.708;37.522;2022-11-23T11:16:01;98523.28;;;1.51;nan
63287;BME280;49410;55.708;37.522;2022-11-23T11:18:29;98526.69;;;1.63;nan
63287;BME280;49410;55.708;37.522;2022-11-23T11:20:58;98521.03;;;1.66;nan
63287;BME280;49410;55.708;37.522;2022-11-23T11:23:24;98527.53;;;1.63;nan
63287;BME280;49410;55.708;37.522;2022-11-23T11:26:02;98518.75;;;1.61;nan
63287;BME280;49410;55.708;37.522;2022-11-23T11:28:36;98529.94;;;1.66;nan
63287;BME280;49410;55.708;37.522;2022-11-23T11:34:33;98536.31;;;1.65;nan
63287;BME280;49410;55.708;37.522;2022-11-23T11:37:11;98536.88;;;1.69;nan
63287;BME280;49410;55.708;37.522;2022-11-23T11:39:48;98538.03;;;1.66;nan
63287;BME280;49410;55.708;37.522;2022-11-23T11:42:40;98555.34;;;1.74;nan
63287;BME280;49410;55.708;37.522;2022-11-23T11:45:15;98543.44;;;1.76;nan
63287;BME280;49410;55.708;37.522;2022-11-23T11:47:50;98558.44;;;1.69;nan
63287;BME280;49410;55.708;37.522;2022-11-23T11:52:50;98536.91;;;1.59;nan
63287;BME280;49410;55.708;37.522;2022-11-23T11:55:25;98561.16;;;1.69;nan
63287;BME280;49410;55.708;37.522;2022-11-23T12:03:54;98566.69;;;1.67;nan
63287;BME280;49410;55.708;37.522;2022-11-23T12:06:42;98569.22;;;1.69;nan
63287;BME280;49410;55.708;37.522;2022-11-23T12:09:15;98560.31;;;1.68;nan
63287;BME280;49410;55.708;37.522;2022-11-23T12:11:43;98569.25;;;1.79;nan
63287;BME280;49410;55.708;37.522;2022-11-23T12:14:12;98582.31;;;1.83;nan
63287;BME280;49410;55.708;37.522;2022-11-23T12:16:50;98580.03;;;1.79;nan
63287;BME280;49410;55.708;37.522;2022-11-23T12:19:35;98563.41;;;1.74;nan
63287;BME280;49410;55.708;37.522;2022-11-23T12:25:31;98581.44;;;1.73;nan
63287;BME280;49410;55.708;37.522;2022-11-23T12:28:26;98593.50;;;1.79;nan
63287;BME280;49410;55.708;37.522;2022-11-23T12:36:59;98601.13;;;1.54;nan
63287;BME280;49410;55.708;37.522;2022-11-23T12:50:48;98616.34;;;1.65;nan
63287;BME280;49410;55.708;37.522;2022-11-23T12:59:16;98640.00;;;1.51;nan
63287;BME280;49410;55.708;37.522;2022-11-23T13:01:46;98625.81;;;1.49;nan
63287;BME280;49410;55.708;37.522;2022-11-23T13:15:28;98651.69;;;1.21;nan
63287;BME280;49410;55.708;37.522;2022-11-23T13:18:13;98637.50;;;1.19;nan
63287;BME280;49410;55.708;37.522;2022-11-23T13:21:14;98642.91;;;1.29;nan
63287;BME280;49410;55.708;37.522;2022-11-23T13:23:43;98642.78;;;1.30;nan
63287;BME280;49410;55.708;37.522;2022-11-23T13:26:14;98645.16;;;1.23;nan
63287;BME280;49410;55.708;37.522;2022-11-23T13:28:40;98646.16;;;1.22;nan
63287;BME280;49410;55.708;37.522;2022-11-23T13:31:29;98648.69;;;1.24;nan
63287;BME280;49410;55.708;37.522;2022-11-23T13:33:59;98651.78;;;1.19;nan
63287;BME280;49410;55.708;37.522;2022-11-23T13:38:54;98657.66;;;1.24;nan
63287;BME280;49410;55.708;37.522;2022-11-23T13:41:56;98658.47;;;1.25;nan
63287;BME280;49410;55.708;37.522;2022-11-23T13:44:27;98646.81;;;1.15;nan
63287;BME280;49410;55.708;37.522;2022-11-23T13:57:41;98635.53;;;0.90;nan
63287;BME280;49410;55.708;37.522;2022-11-23T14:06:10;98677.06;;;1.28;nan
63287;BME280;49410;55.708;37.522;2022-11-23T14:08:39;98688.13;;;1.25;nan
63287;BME280;49410;55.708;37.522;2022-11-23T14:11:14;98684.84;;;1.21;nan
63287;BME280;49410;55.708;37.522;2022-11-23T14:13:50;98687.38;;;1.23;nan
63287;BME280;49410;55.708;37.522;2022-11-23T14:16:32;98684.69;;;1.23;nan
63287;BME280;49410;55.708;37.522;2022-11-23T14:19:14;98684.13;;;1.19;nan
63287;BME280;49410;55.708;37.522;2022-11-23T14:27:40;98700.16;;;1.21;nan
63287;BME280;49410;55.708;37.522;2022-11-23T14:33:17;98711.53;;;1.24;nan
63287;BME280;49410;55.708;37.522;2022-11-23T14:36:09;98713.81;;;1.29;nan
63287;BME280;49410;55.708;37.522;2022-11-23T14:41:40;98714.81;;;1.07;nan
63287;BME280;49410;55.708;37.522;2022-11-23T14:44:12;98708.00;;;1.03;nan
63287;BME280;49410;55.708;37.522;2022-11-23T14:47:00;98719.41;;;1.16;nan
63287;BME280;49410;55.708;37.522;2022-11-23T14:49:26;98707.75;;;1.06;nan
63287;BME280;49410;55.708;37.522;2022-11-23T14:51:52;98713.25;;;1.04;nan
63287;BME280;49410;55.708;37.522;2022-11-23T14:54:18;98706.03;;;0.84;nan
63287;BME280;49410;55.708;37.522;2022-11-23T14:56:46;98710.19;;;0.88;nan
63287;BME280;49410;55.708;37.522;2022-11-23T15:02:02;98731.00;;;0.86;nan
63287;BME280;49410;55.708;37.522;2022-11-23T15:04:31;98718.41;;;0.86;nan
63287;BME280;49410;55.708;37.522;2022-11-23T15:07:17;98736.84;;;0.91;nan
63287;BME280;49410;55.708;37.522;2022-11-23T15:10:06;98731.88;;;0.86;nan
63287;BME280;49410;55.708;37.522;2022-11-23T15:12:44;98736.22;;;0.87;nan
63287;BME280;49410;55.708;37.522;2022-11-23T15:15:22;98725.84;;;0.83;nan
63287;BME280;49410;55.708;37.522;2022-11-23T15:17:56;98733.28;;;0.90;nan